Time;durP1;ratioP1;P1;durP2;ratioP2;P2;SDS_P1;SDS_P2;PMS_P1;PMS_P2;Temp;Humidity;BMP_temperature;BMP_pressure;BME280_temperature;BME280_humidity;BME280_pressure;Samples;Min_cycle;Max_cycle;Signal;HPM_P1;HPM_P2
2023/06/20 00:03:02;;;;;;;21.43;20.03;;;21.40;99.90;;;;;;2609775;54;20134;-70
2023/06/20 00:08:50;;;;;;;22.23;20.93;;;21.30;99.90;;;;;;2610733;54;20141;-69
2023/06/20 00:14:39;;;;;;;21.57;20.27;;;21.30;99.90;;;;;;2612164;46;20414;-69
2023/06/20 00:20:28;;;;;;;22.17;20.87;;;21.40;99.90;;;;;;2614207;54;20437;-69
2023/06/20 00:26:15;;;;;;;22.07;20.40;;;21.40;99.90;;;;;;2610248;54;20491;-69
2023/06/20 00:32:03;;;;;;;20.93;19.63;;;21.40;99.90;;;;;;2610352;54;20130;-68
2023/06/20 00:37:52;;;;;;;21.40;20.00;;;21.40;99.90;;;;;;2609468;54;20157;-69
2023/06/20 00:43:39;;;;;;;20.80;19.60;;;21.50;99.90;;;;;;2609925;54;21031;-69
2023/06/20 00:49:27;;;;;;;21.07;19.67;;;21.50;99.90;;;;;;2611621;54;20126;-69
2023/06/20 00:59:17;;;;;;;20.53;19.33;;;21.50;99.90;;;;;;2610142;39;21106;-70
2023/06/20 01:05:05;;;;;;;22.73;21.33;;;21.40;99.90;;;;;;2609959;54;20427;-69
2023/06/20 01:30:48;;;;;;;20.43;19.23;;;21.50;99.90;;;;;;2611545;54;20368;-70
2023/06/20 01:36:40;;;;;;;21.37;20.17;;;21.50;99.90;;;;;;2611314;54;20359;-68
2023/06/20 01:42:29;;;;;;;22.17;20.47;;;21.50;99.90;;;;;;2608823;54;20384;-70
2023/06/20 01:48:18;;;;;;;21.63;20.03;;;21.50;99.90;;;;;;2608444;54;20383;-70
2023/06/20 01:54:07;;;;;;;20.53;19.23;;;21.60;99.90;;;;;;2609798;39;20806;-69
2023/06/20 02:03:48;;;;;;;20.63;19.53;;;21.40;99.90;;;;;;2609512;54;20475;-69
2023/06/20 02:09:38;;;;;;;21.00;19.43;;;21.30;99.90;;;;;;2611250;54;20371;-68
2023/06/20 02:15:28;;;;;;;21.40;20.00;;;21.40;99.90;;;;;;2612150;54;20434;-70
2023/06/20 02:21:23;;;;;;;19.80;18.57;;;21.30;99.90;;;;;;2609609;54;20411;-69
2023/06/20 02:27:15;;;;;;;20.17;19.07;;;21.40;99.90;;;;;;2609536;54;20434;-68
2023/06/20 02:33:06;;;;;;;21.00;19.73;;;21.40;99.90;;;;;;2610149;54;20901;-70
2023/06/20 02:38:56;;;;;;;20.17;18.87;;;21.30;99.90;;;;;;2611405;39;20816;-69
2023/06/20 02:41:59;;;;;;;22.33;20.67;;;21.40;99.90;;;;;;2608666;54;20483;-68
2023/06/20 02:44:25;;;;;;;21.33;20.13;;;21.40;99.90;;;;;;2611571;54;20470;-69
2023/06/20 02:50:20;;;;;;;19.90;18.80;;;21.40;99.90;;;;;;2612116;54;20127;-70
2023/06/20 02:56:12;;;;;;;20.43;19.00;;;21.40;99.90;;;;;;2609081;54;20414;-76
2023/06/20 02:59:17;;;;;;;19.13;17.70;;;21.40;99.90;;;;;;2607311;51;21119;-77
2023/06/20 03:01:47;;;;;;;19.00;17.90;;;21.30;99.90;;;;;;2610876;54;20438;-76
2023/06/20 03:07:35;;;;;;;19.30;18.07;;;21.30;99.90;;;;;;2610174;39;20773;-79
2023/06/20 03:13:23;;;;;;;19.30;18.10;;;21.20;99.90;;;;;;2613180;54;20387;-76
2023/06/20 03:19:11;;;;;;;19.40;18.20;;;21.30;99.90;;;;;;2610704;54;20446;-77
2023/06/20 03:24:59;;;;;;;20.50;18.90;;;21.30;99.90;;;;;;2611053;54;20288;-77
2023/06/20 03:30:46;;;;;;;19.13;18.03;;;21.30;99.90;;;;;;2610961;54;20142;-78
2023/06/20 03:36:34;;;;;;;19.57;18.37;;;21.20;99.90;;;;;;2611298;54;20158;-76
2023/06/20 03:42:22;;;;;;;20.20;18.70;;;21.20;99.90;;;;;;2609064;54;20158;-76
2023/06/20 03:48:10;;;;;;;19.53;18.33;;;21.20;99.90;;;;;;2610179;54;20254;-78
2023/06/20 03:53:58;;;;;;;18.93;17.80;;;21.20;99.90;;;;;;2609921;54;20166;-76
2023/06/20 04:03:48;;;;;;;19.57;18.40;;;21.20;99.90;;;;;;2610989;46;20414;-76
2023/06/20 04:09:38;;;;;;;19.83;18.07;;;21.20;99.90;;;;;;2611491;54;20518;-77
2023/06/20 04:15:27;;;;;;;18.77;17.63;;;21.20;99.90;;;;;;2612440;54;20379;-76
2023/06/20 04:21:16;;;;;;;19.07;17.97;;;21.40;99.90;;;;;;2610079;54;20415;-76
2023/06/20 04:27:04;;;;;;;19.13;18.03;;;21.60;99.90;;;;;;2608870;54;20426;-76
2023/06/20 04:32:53;;;;;;;18.40;17.27;;;21.70;99.90;;;;;;2609923;54;20395;-76
2023/06/20 04:38:41;;;;;;;18.13;17.00;;;21.80;99.90;;;;;;2610984;39;20716;-77
2023/06/20 04:44:29;;;;;;;19.00;17.90;;;21.80;99.90;;;;;;2609540;39;20809;-76
2023/06/20 04:50:17;;;;;;;18.17;16.97;;;21.90;99.90;;;;;;2610999;54;20804;-76
2023/06/20 04:56:05;;;;;;;18.63;17.53;;;22.10;99.90;;;;;;2610151;54;20139;-80
2023/06/20 05:02:05;;;;;;;19.47;18.27;;;21.80;99.90;;;;;;2607355;54;20415;-76
2023/06/20 05:07:52;;;;;;;18.30;17.10;;;21.80;99.90;;;;;;2610775;54;20973;-77
2023/06/20 05:13:39;;;;;;;19.10;17.90;;;21.80;99.90;;;;;;2612480;54;20475;-74
2023/06/20 05:19:26;;;;;;;18.80;17.70;;;21.80;99.90;;;;;;2608056;54;20133;-75
2023/06/20 05:25:13;;;;;;;18.30;16.97;;;21.80;99.90;;;;;;2610212;54;20134;-75
2023/06/20 05:31:01;;;;;;;18.53;17.53;;;22.00;99.90;;;;;;2612776;54;20150;-75
2023/06/20 05:40:10;;;;;;;17.03;16.13;;;22.00;99.90;;;;;;2611089;54;20426;-79
2023/06/20 05:45:58;;;;;;;19.87;18.57;;;22.30;99.90;;;;;;2610543;54;20418;-80
2023/06/20 05:51:49;;;;;;;18.90;17.60;;;22.70;99.90;;;;;;2613452;54;20129;-80
2023/06/20 05:57:37;;;;;;;17.77;16.80;;;23.10;99.90;;;;;;2610801;54;20962;-81
2023/06/20 06:03:25;;;;;;;17.93;16.97;;;23.80;99.90;;;;;;2613806;54;20399;-81
2023/06/20 06:09:12;;;;;;;18.13;17.17;;;23.60;99.90;;;;;;2614031;54;20131;-81
2023/06/20 06:15:00;;;;;;;17.33;16.43;;;23.90;99.90;;;;;;2614501;54;20169;-81
2023/06/20 06:20:47;;;;;;;17.40;16.50;;;24.40;99.90;;;;;;2614854;54;20720;-82
2023/06/20 06:26:35;;;;;;;18.07;16.80;;;24.70;99.90;;;;;;2617014;54;20123;-86
2023/06/20 06:32:23;;;;;;;19.17;17.97;;;25.50;94.10;;;;;;2617101;54;20388;-85
2023/06/20 06:38:12;;;;;;;18.63;17.73;;;24.50;99.90;;;;;;2615795;54;20283;-85
2023/06/20 06:47:18;;;;;;;18.80;17.80;;;25.20;99.90;;;;;;2616301;54;20447;-84
2023/06/20 06:53:06;;;;;;;18.93;17.93;;;24.80;99.90;;;;;;2615610;54;20126;-85
2023/06/20 06:58:57;;;;;;;18.10;17.10;;;25.20;99.90;;;;;;2616170;54;20301;-84
2023/06/20 07:04:45;;;;;;;17.80;16.77;;;25.10;99.90;;;;;;2616229;54;20391;-84
2023/06/20 07:10:33;;;;;;;18.80;17.60;;;26.60;71.20;;;;;;2615221;54;20134;-84
2023/06/20 07:16:21;;;;;;;19.93;18.73;;;26.90;55.90;;;;;;2616576;54;20656;-84
2023/06/20 07:22:08;;;;;;;19.37;18.27;;;25.90;82.90;;;;;;2615717;54;20154;-85
2023/06/20 07:27:57;;;;;;;19.40;18.37;;;25.50;73.80;;;;;;2615662;54;20731;-83
2023/06/20 07:33:46;;;;;;;20.57;19.47;;;25.90;79.00;;;;;;2616283;54;20957;-81
2023/06/20 07:37:03;;;;;;;21.03;19.20;;;26.60;54.70;;;;;;2614890;47;20993;-80
2023/06/20 07:39:28;;;;;;;21.90;20.47;;;26.90;50.40;;;;;;2615961;54;20424;-81
2023/06/20 07:45:16;;;;;;;22.10;20.70;;;26.90;48.50;;;;;;2623013;54;20194;-79
2023/06/20 07:51:04;;;;;;;19.43;18.27;;;26.80;51.30;;;;;;2626618;54;20186;-84
2023/06/20 07:56:52;;;;;;;20.37;19.37;;;27.20;48.60;;;;;;2618864;54;20158;-84
2023/06/20 08:02:40;;;;;;;19.10;18.10;;;27.80;41.10;;;;;;2615281;46;20255;-84
2023/06/20 08:08:28;;;;;;;18.57;17.60;;;28.00;39.70;;;;;;2616833;54;20199;-84
2023/06/20 08:14:17;;;;;;;18.77;17.87;;;27.90;39.80;;;;;;2616435;54;20123;-85
2023/06/20 08:20:08;;;;;;;18.10;17.20;;;28.40;39.50;;;;;;2622855;54;20964;-81
2023/06/20 08:25:57;;;;;;;17.20;16.40;;;28.70;32.90;;;;;;2615162;54;20396;-82
2023/06/20 08:29:01;;;;;;;20.97;19.60;;;28.90;28.00;;;;;;2618074;54;21056;-82
2023/06/20 08:31:36;;;;;;;18.60;17.53;;;29.00;26.50;;;;;;2616934;47;20483;-81
2023/06/20 08:41:33;;;;;;;18.60;17.70;;;29.30;25.70;;;;;;2615853;54;20386;-82
2023/06/20 08:47:20;;;;;;;17.73;16.83;;;29.10;22.60;;;;;;2619920;54;20430;-82
2023/06/20 08:53:11;;;;;;;17.17;16.37;;;28.50;25.80;;;;;;2617149;54;20123;-82
2023/06/20 08:58:59;;;;;;;17.27;16.57;;;29.30;22.20;;;;;;2617577;54;20382;-82
2023/06/20 09:11:25;;;;;;;16.43;15.63;;;29.20;21.70;;;;;;2615009;54;20395;-82
2023/06/20 09:17:13;;;;;;;17.60;16.70;;;30.70;17.00;;;;;;2617257;54;20503;-82
2023/06/20 09:23:00;;;;;;;17.03;16.23;;;30.90;11.20;;;;;;2616283;54;20123;-79
2023/06/20 09:28:48;;;;;;;16.40;15.67;;;30.70;14.20;;;;;;2617251;54;20162;-79
2023/06/20 09:34:37;;;;;;;16.67;15.87;;;31.20;13.90;;;;;;2616888;54;20154;-79
2023/06/20 09:43:49;;;;;;;17.27;16.47;;;31.00;9.90;;;;;;2614939;54;20403;-79
2023/06/20 09:49:40;;;;;;;17.87;16.97;;;29.60;13.50;;;;;;2616987;54;20419;-85
2023/06/20 09:55:31;;;;;;;17.37;16.57;;;29.50;14.20;;;;;;2614674;54;20479;-84
2023/06/20 10:01:20;;;;;;;17.03;16.23;;;31.10;12.00;;;;;;2617115;54;20414;-84
2023/06/20 10:07:14;;;;;;;18.73;17.83;;;29.50;13.70;;;;;;2615937;54;20411;-84
2023/06/20 10:13:03;;;;;;;16.63;15.83;;;31.20;14.20;;;;;;2614495;54;20419;-84
2023/06/20 10:18:50;;;;;;;18.40;17.50;;;30.70;12.90;;;;;;2616665;54;20379;-84
2023/06/20 10:24:41;;;;;;;16.83;16.03;;;30.90;9.90;;;;;;2616213;54;20174;-86
2023/06/20 10:30:50;;;;;;;19.23;18.23;;;30.50;9.20;;;;;;2614275;54;20375;-86
2023/06/20 10:36:39;;;;;;;19.40;18.40;;;30.10;9.40;;;;;;2616924;54;20411;-81
2023/06/20 10:39:19;;;;;;;18.80;17.90;;;30.90;8.20;;;;;;2614948;47;20419;-80
2023/06/20 10:41:46;;;;;;;16.10;15.50;;;30.60;9.30;;;;;;2611462;54;20425;-81
2023/06/20 10:47:34;;;;;;;16.27;15.50;;;30.20;11.00;;;;;;2612072;54;20494;-84
2023/06/20 10:53:22;;;;;;;19.30;18.30;;;30.40;10.10;;;;;;2612978;54;20399;-85
2023/06/20 10:56:37;;;;;;;19.73;18.67;;;30.90;9.80;;;;;;2614485;54;20423;-85
2023/06/20 10:59:14;;;;;;;17.93;17.07;;;31.10;10.00;;;;;;2614433;54;20226;-85
2023/06/20 11:05:04;;;;;;;19.50;18.60;;;30.30;11.50;;;;;;2617286;54;20403;-86
2023/06/20 11:10:52;;;;;;;17.40;16.60;;;32.30;7.00;;;;;;2615108;54;20415;-85
2023/06/20 11:16:42;;;;;;;17.00;16.20;;;31.40;8.10;;;;;;2614651;54;20415;-85
2023/06/20 11:22:30;;;;;;;17.13;16.33;;;32.20;3.30;;;;;;2616890;54;20383;-85
2023/06/20 11:28:18;;;;;;;18.30;17.17;;;31.50;1.00;;;;;;2616437;39;20790;-86
2023/06/20 11:34:11;;;;;;;18.20;17.40;;;31.30;2.80;;;;;;2613871;54;20137;-84
2023/06/20 11:43:54;;;;;;;17.90;17.10;;;32.40;1.00;;;;;;2616763;54;20509;-85
2023/06/20 11:49:42;;;;;;;17.90;17.00;;;32.20;1.00;;;;;;2616073;54;20399;-86
2023/06/20 11:55:48;;;;;;;18.53;17.73;;;32.20;1.00;;;;;;2617699;54;20274;-86
2023/06/20 12:01:36;;;;;;;17.80;16.80;;;32.10;2.20;;;;;;2616169;54;21119;-84
2023/06/20 12:07:25;;;;;;;18.00;17.20;;;32.70;1.00;;;;;;2616340;54;20191;-85
2023/06/20 12:13:14;;;;;;;19.00;18.00;;;32.90;1.00;;;;;;2616085;54;20386;-83
2023/06/20 12:19:02;;;;;;;18.00;17.13;;;33.60;1.00;;;;;;2616103;54;20383;-84
2023/06/20 12:24:49;;;;;;;19.03;18.13;;;33.00;1.00;;;;;;2617020;39;20536;-85
2023/06/20 12:30:37;;;;;;;18.80;18.00;;;32.70;1.00;;;;;;2616906;54;20166;-85
2023/06/20 12:36:26;;;;;;;20.10;19.00;;;33.00;1.00;;;;;;2614712;54;20767;-84
2023/06/20 12:42:51;;;;;;;18.47;17.67;;;33.60;1.00;;;;;;2611465;54;20455;-81
2023/06/20 12:45:32;;;;;;;18.33;17.53;;;34.50;1.00;;;;;;2614433;54;20992;-83
2023/06/20 12:51:21;;;;;;;18.50;17.70;;;33.60;1.00;;;;;;2608274;54;20448;-82
2023/06/20 12:57:09;;;;;;;18.97;17.83;;;34.50;1.00;;;;;;2615106;54;20444;-83
2023/06/20 13:02:56;;;;;;;18.43;17.63;;;32.90;1.00;;;;;;2614225;54;20204;-83
2023/06/20 13:08:45;;;;;;;19.77;18.67;;;32.60;1.00;;;;;;2614183;54;20166;-80
2023/06/20 13:14:33;;;;;;;19.10;18.20;;;32.90;1.00;;;;;;2613144;54;20966;-80
2023/06/20 13:20:23;;;;;;;19.87;18.90;;;32.70;1.00;;;;;;2616265;39;20506;-81
2023/06/20 13:26:11;;;;;;;18.77;17.77;;;32.30;1.00;;;;;;2614535;46;20403;-80
2023/06/20 13:31:59;;;;;;;18.67;17.73;;;32.70;1.00;;;;;;2613590;54;20184;-79
2023/06/20 13:37:47;;;;;;;20.00;19.00;;;32.00;1.00;;;;;;2614701;39;20782;-80
2023/06/20 13:43:49;;;;;;;19.40;18.40;;;31.10;1.50;;;;;;2613591;46;20681;-78
2023/06/20 13:49:37;;;;;;;18.60;17.80;;;33.40;1.00;;;;;;2613750;54;20394;-78
2023/06/20 13:55:24;;;;;;;20.60;19.20;;;33.10;1.00;;;;;;2612178;54;20154;-80
2023/06/20 14:01:13;;;;;;;18.87;17.93;;;33.60;1.00;;;;;;2612059;54;20149;-79
2023/06/20 14:07:00;;;;;;;19.83;18.77;;;33.30;1.00;;;;;;2611920;54;20387;-85
2023/06/20 14:12:50;;;;;;;18.03;17.20;;;32.70;1.00;;;;;;2610533;54;20130;-80
2023/06/20 14:18:37;;;;;;;18.80;17.90;;;34.00;1.00;;;;;;2611213;54;20511;-79
2023/06/20 14:24:25;;;;;;;19.37;18.47;;;32.40;1.00;;;;;;2613127;54;20131;-79
2023/06/20 14:30:16;;;;;;;19.50;18.60;;;32.10;1.00;;;;;;2613714;54;20178;-80
2023/06/20 14:36:04;;;;;;;19.30;18.50;;;32.10;1.00;;;;;;2614156;54;20944;-79
2023/06/20 14:45:33;;;;;;;19.87;18.97;;;31.30;3.00;;;;;;2613624;39;22134;-78
2023/06/20 14:51:23;;;;;;;19.43;18.40;;;32.10;2.50;;;;;;2614208;54;20403;-79
2023/06/20 14:57:10;;;;;;;21.40;20.20;;;31.60;2.70;;;;;;2613646;54;20384;-78
2023/06/20 15:02:58;;;;;;;21.27;20.27;;;30.90;4.40;;;;;;2612284;54;20131;-79
2023/06/20 15:08:46;;;;;;;20.97;19.83;;;30.50;4.60;;;;;;2615106;54;20166;-79
2023/06/20 15:14:34;;;;;;;26.90;25.07;;;30.00;9.60;;;;;;2614193;54;20197;-80
2023/06/20 15:20:22;;;;;;;17.90;16.80;;;29.20;29.70;;;;;;2613249;54;20383;-80
2023/06/20 15:26:10;;;;;;;19.27;18.17;;;28.90;33.80;;;;;;2615778;54;20418;-80
2023/06/20 15:31:58;;;;;;;12.63;11.70;;;29.00;47.50;;;;;;2614705;54;20722;-79
2023/06/20 15:37:46;;;;;;;13.93;12.93;;;28.10;99.90;;;;;;2615480;54;20415;-80
2023/06/20 15:41:03;;;;;;;14.73;13.67;;;28.00;99.90;;;;;;2612617;54;20519;-79
2023/06/20 15:43:29;;;;;;;14.33;12.93;;;28.00;99.90;;;;;;2614974;54;20155;-85
2023/06/20 15:49:17;;;;;;;9.03;8.33;;;28.20;99.90;;;;;;2614635;54;20131;-80
2023/06/20 15:55:06;;;;;;;10.67;9.53;;;28.40;99.90;;;;;;2612519;54;20636;-80
2023/06/20 16:00:53;;;;;;;11.97;11.17;;;28.40;99.90;;;;;;2611849;54;20423;-80
2023/06/20 16:06:41;;;;;;;13.07;12.10;;;28.40;99.90;;;;;;2613591;54;20656;-80
2023/06/20 16:12:29;;;;;;;14.53;13.63;;;28.80;93.20;;;;;;2613303;54;20134;-80
2023/06/20 16:18:16;;;;;;;15.63;14.73;;;29.30;63.10;;;;;;2612752;54;20312;-84
2023/06/20 16:24:04;;;;;;;16.20;15.40;;;29.60;63.70;;;;;;2615418;54;20242;-85
2023/06/20 16:29:52;;;;;;;17.73;16.73;;;29.60;29.20;;;;;;2616030;54;20130;-84
2023/06/20 16:35:40;;;;;;;17.83;16.83;;;29.50;28.30;;;;;;2617791;39;20533;-86
2023/06/20 16:45:31;;;;;;;18.17;17.27;;;29.50;23.10;;;;;;2614287;54;20486;-81
2023/06/20 16:51:19;;;;;;;17.60;16.70;;;29.40;22.60;;;;;;2611520;54;20448;-87
2023/06/20 16:57:07;;;;;;;17.70;16.90;;;29.30;23.40;;;;;;2616287;54;20439;-87
2023/06/20 17:02:55;;;;;;;16.80;15.90;;;29.20;20.70;;;;;;2613138;54;20395;-86
2023/06/20 17:08:43;;;;;;;18.07;17.20;;;29.20;20.20;;;;;;2615731;54;20684;-88
2023/06/20 17:14:31;;;;;;;18.27;17.37;;;29.00;20.00;;;;;;2613675;54;20122;-87
2023/06/20 17:20:19;;;;;;;18.30;17.40;;;29.10;19.80;;;;;;2613863;54;20391;-89
2023/06/20 17:26:09;;;;;;;17.80;17.00;;;29.20;18.90;;;;;;2612952;54;20158;-84
2023/06/20 17:31:58;;;;;;;18.23;17.33;;;29.10;20.20;;;;;;2613088;54;20511;-86
2023/06/20 17:37:46;;;;;;;19.27;18.17;;;28.80;21.90;;;;;;2612113;54;20383;-85
2023/06/20 17:41:04;;;;;;;19.93;18.70;;;28.90;20.50;;;;;;2613566;39;21017;-85
2023/06/20 17:43:30;;;;;;;18.17;17.27;;;28.70;21.40;;;;;;2616340;54;20155;-85
2023/06/20 17:49:18;;;;;;;18.77;17.80;;;28.70;22.40;;;;;;2615225;54;20423;-84
2023/06/20 17:55:08;;;;;;;18.50;17.70;;;28.60;21.80;;;;;;2614110;54;20154;-84
2023/06/20 18:00:56;;;;;;;18.20;17.30;;;28.50;22.70;;;;;;2621306;54;20391;-86
2023/06/20 18:06:43;;;;;;;19.17;18.07;;;28.40;24.10;;;;;;2625319;54;20150;-83
2023/06/20 18:12:31;;;;;;;17.80;17.00;;;28.30;24.10;;;;;;2626676;54;20134;-84
2023/06/20 18:18:20;;;;;;;17.80;16.80;;;28.20;26.30;;;;;;2628551;54;20419;-84
2023/06/20 18:24:08;;;;;;;18.40;17.40;;;28.10;26.70;;;;;;2626617;54;20159;-85
2023/06/20 18:26:52;;;;;;;18.73;17.70;;;28.10;27.40;;;;;;2623960;47;20407;-84
2023/06/20 18:29:19;;;;;;;18.67;17.77;;;28.10;26.60;;;;;;2625263;47;20186;-86
2023/06/20 18:35:08;;;;;;;18.47;17.30;;;28.00;26.60;;;;;;2624120;39;20596;-85
2023/06/20 18:40:56;;;;;;;18.40;17.40;;;28.00;26.40;;;;;;2616845;54;20415;-84
2023/06/20 18:46:44;;;;;;;20.60;19.20;;;27.90;25.60;;;;;;2618829;54;20407;-83
2023/06/20 18:52:32;;;;;;;18.10;17.20;;;27.70;27.10;;;;;;2624160;54;20143;-88
2023/06/20 18:58:20;;;;;;;17.50;16.70;;;26.30;68.60;;;;;;2628892;54;20102;-87
2023/06/20 19:04:08;;;;;;;17.50;16.60;;;25.60;99.90;;;;;;2629545;54;20138;-87
2023/06/20 19:09:58;;;;;;;17.40;16.37;;;25.30;99.90;;;;;;2627876;54;20119;-87
2023/06/20 19:15:46;;;;;;;15.80;15.00;;;25.00;99.90;;;;;;2628765;54;20407;-85
2023/06/20 19:21:34;;;;;;;16.00;15.20;;;24.90;99.90;;;;;;2624426;54;20139;-85
2023/06/20 19:27:23;;;;;;;15.03;14.03;;;24.60;99.90;;;;;;2628628;54;20173;-85
2023/06/20 19:33:10;;;;;;;16.00;15.10;;;24.50;99.90;;;;;;2621104;54;20387;-85
2023/06/20 19:38:58;;;;;;;15.10;14.30;;;24.30;99.90;;;;;;2617487;54;20652;-85
2023/06/20 19:44:46;;;;;;;15.47;14.60;;;24.20;99.90;;;;;;2620703;54;20246;-86
2023/06/20 19:50:34;;;;;;;14.10;13.40;;;24.10;99.90;;;;;;2621844;54;20195;-86
2023/06/20 19:56:23;;;;;;;16.03;15.10;;;24.00;99.90;;;;;;2627020;54;20181;-85
2023/06/20 20:02:15;;;;;;;15.53;14.50;;;23.90;99.90;;;;;;2628450;54;20382;-85
2023/06/20 20:08:03;;;;;;;15.77;14.77;;;23.80;99.90;;;;;;2628406;54;20395;-82
2023/06/20 20:13:51;;;;;;;14.87;14.07;;;23.80;99.90;;;;;;2614808;54;20152;-77
2023/06/20 20:19:39;;;;;;;15.80;14.90;;;23.80;99.90;;;;;;2614402;54;20956;-77
2023/06/20 20:25:29;;;;;;;15.97;14.80;;;23.60;99.90;;;;;;2612830;54;20154;-76
2023/06/20 20:31:17;;;;;;;16.30;15.10;;;23.50;99.90;;;;;;2614157;54;20398;-77
2023/06/20 20:37:05;;;;;;;16.90;15.60;;;23.40;99.90;;;;;;2613016;54;21036;-78
2023/06/20 20:48:43;;;;;;;13.47;12.67;;;23.20;99.90;;;;;;2613845;54;20359;-72
2023/06/20 20:54:33;;;;;;;13.17;12.37;;;23.00;99.90;;;;;;2614371;54;20370;-73
2023/06/20 21:00:21;;;;;;;13.40;12.60;;;22.90;99.90;;;;;;2613069;54;20893;-72
2023/06/20 21:06:08;;;;;;;12.80;12.00;;;22.70;99.90;;;;;;2614539;54;20154;-73
2023/06/20 21:11:56;;;;;;;13.20;12.17;;;22.50;99.90;;;;;;2614007;54;20247;-72
2023/06/20 21:17:44;;;;;;;12.30;11.40;;;22.40;99.90;;;;;;2612184;39;21420;-70
2023/06/20 21:23:32;;;;;;;13.30;12.40;;;22.40;99.90;;;;;;2614476;54;20672;-72
2023/06/20 21:29:20;;;;;;;11.50;10.60;;;22.50;99.90;;;;;;2614058;54;20162;-71
2023/06/20 21:35:08;;;;;;;10.73;9.70;;;22.20;99.90;;;;;;2611490;54;20363;-73
2023/06/20 21:40:56;;;;;;;22.20;18.70;;;21.90;99.90;;;;;;2613516;54;20363;-72
2023/06/20 21:50:08;;;;;;;15.37;13.70;;;21.70;99.90;;;;;;2613804;54;20442;-72
2023/06/20 21:55:55;;;;;;;15.43;13.40;;;21.40;99.90;;;;;;2612867;54;20387;-75
2023/06/20 22:01:43;;;;;;;19.33;17.60;;;21.00;99.90;;;;;;2613672;54;20158;-78
2023/06/20 22:07:31;;;;;;;20.57;18.67;;;20.90;99.90;;;;;;2614101;39;20510;-76
2023/06/20 22:13:19;;;;;;;17.90;16.30;;;20.90;99.90;;;;;;2614613;54;20130;-75
2023/06/20 22:19:06;;;;;;;17.50;16.00;;;20.90;99.90;;;;;;2614202;54;20262;-75
2023/06/20 22:24:54;;;;;;;17.80;16.10;;;20.80;99.90;;;;;;2613722;54;20766;-74
2023/06/20 22:30:42;;;;;;;16.47;15.10;;;20.70;99.90;;;;;;2613812;54;20219;-75
2023/06/20 22:36:29;;;;;;;16.43;15.00;;;20.50;99.90;;;;;;2612285;54;20155;-75
2023/06/20 22:42:17;;;;;;;16.83;15.40;;;20.50;99.90;;;;;;2614051;54;20142;-74
2023/06/20 22:45:27;;;;;;;16.77;15.37;;;20.40;99.90;;;;;;2613999;39;20809;-74
2023/06/20 22:47:53;;;;;;;16.33;14.73;;;20.30;99.90;;;;;;2612969;54;20412;-74
2023/06/20 22:53:41;;;;;;;14.57;13.10;;;20.30;99.90;;;;;;2614297;39;20548;-74
2023/06/20 22:59:28;;;;;;;15.80;12.07;;;20.20;99.90;;;;;;2612225;54;20133;-74
2023/06/20 23:05:16;;;;;;;11.40;10.13;;;20.10;99.90;;;;;;2612950;54;20122;-73
2023/06/20 23:11:04;;;;;;;11.13;10.13;;;20.00;99.90;;;;;;2614257;54;20134;-73
2023/06/20 23:16:52;;;;;;;10.50;9.60;;;19.80;99.90;;;;;;2614600;54;20643;-73
2023/06/20 23:22:40;;;;;;;10.87;9.77;;;19.70;99.90;;;;;;2614702;54;20150;-73
2023/06/20 23:28:28;;;;;;;10.60;9.50;;;19.80;99.90;;;;;;2614035;54;20363;-71
2023/06/20 23:34:17;;;;;;;10.67;9.67;;;19.60;99.90;;;;;;2614902;54;20146;-74
2023/06/20 23:40:11;;;;;;;11.10;8.80;;;19.60;99.90;;;;;;2615211;54;20471;-73
2023/06/20 23:49:56;;;;;;;10.47;9.10;;;19.40;99.90;;;;;;2615356;54;20370;-73
2023/06/20 23:55:45;;;;;;;8.83;7.93;;;19.50;99.90;;;;;;2615076;54;20390;-73
